createdAt,value
2018-09-22T00:01:37.541Z,72.16
2018-09-22T00:04:07.087Z,72.43
2018-09-22T00:06:36.611Z,71.95
2018-09-22T00:09:09.825Z,71.75
2018-09-22T00:11:39.414Z,72.08
2018-09-22T00:14:09.333Z,71.43
2018-09-22T00:16:39.201Z,73.05
2018-09-22T00:19:08.874Z,74.47
2018-09-22T00:21:38.705Z,74.93
2018-09-22T00:24:08.171Z,75.41
2018-09-22T00:26:38.928Z,75.52
2018-09-22T00:29:08.609Z,75.37
2018-09-22T00:31:38.097Z,74.77
2018-09-22T00:34:07.949Z,73.99
2018-09-22T00:36:38.451Z,74.64
2018-09-22T00:39:09.493Z,74.28
2018-09-22T00:41:39.126Z,74.73
2018-09-22T00:44:08.673Z,75.76
2018-09-22T00:46:38.886Z,75.08
2018-09-22T00:49:08.389Z,75.79
2018-09-22T00:51:37.945Z,76.13
2018-09-22T00:54:07.473Z,76.08
2018-09-22T00:56:37.042Z,76.76
2018-09-22T00:59:06.933Z,76.72
2018-09-22T01:01:36.482Z,76.34
2018-09-22T01:04:06.051Z,75.95
2018-09-22T01:06:35.585Z,76.07
2018-09-22T01:09:06.704Z,75.63
2018-09-22T01:11:36.268Z,75.91
2018-09-22T01:14:06.093Z,75.90
2018-09-22T01:16:35.613Z,75.05
2018-09-22T01:19:05.525Z,74.97
2018-09-22T01:21:35.034Z,75.27
2018-09-22T01:24:04.884Z,75.13
2018-09-22T01:26:34.458Z,75.03
2018-09-22T01:29:05.189Z,75.44
2018-09-22T01:31:34.724Z,74.81
2018-09-22T01:34:04.233Z,75.31
2018-09-22T01:36:33.743Z,74.40
2018-09-22T01:39:03.581Z,74.70
2018-09-22T01:41:33.093Z,74.95
2018-09-22T01:44:09.033Z,74.67
2018-09-22T01:46:38.656Z,74.75
2018-09-22T01:49:08.232Z,74.95
2018-09-22T01:51:37.727Z,75.58
2018-09-22T01:54:07.549Z,75.83
2018-09-22T01:56:37.069Z,76.07
2018-09-22T01:59:06.583Z,75.74
2018-09-22T02:01:36.120Z,75.71
2018-09-22T02:04:05.653Z,76.06
2018-09-22T02:06:35.218Z,75.26
2018-09-22T02:09:06.263Z,75.33
2018-09-22T02:11:35.803Z,75.52
2018-09-22T02:14:05.268Z,75.98
2018-09-22T02:16:34.787Z,75.10
2018-09-22T02:19:04.562Z,75.58
2018-09-22T02:21:34.066Z,75.39
2018-09-22T02:24:03.578Z,75.29
2018-09-22T02:26:33.273Z,74.97
2018-09-22T02:29:02.814Z,75.80
2018-09-22T02:31:32.658Z,75.46
2018-09-22T02:34:02.630Z,74.61
2018-09-22T02:36:32.328Z,74.73
2018-09-22T02:39:01.841Z,74.76
2018-09-22T02:41:31.361Z,74.13
2018-09-22T02:44:00.866Z,74.79
2018-09-22T02:46:30.350Z,74.22
2018-09-22T02:48:59.927Z,74.29
2018-09-22T02:51:29.661Z,74.47
2018-09-22T02:53:59.232Z,73.59
2018-09-22T02:56:28.762Z,73.77
2018-09-22T02:58:58.253Z,73.73
2018-09-22T03:01:28.070Z,73.46
2018-09-22T03:03:57.537Z,73.30
2018-09-22T03:06:27.121Z,73.17
2018-09-22T03:08:56.649Z,73.92
2018-09-22T03:11:26.686Z,73.25
2018-09-22T03:13:56.194Z,73.33
2018-09-22T03:16:25.709Z,73.20
2018-09-22T03:18:55.205Z,73.30
2018-09-22T03:21:24.703Z,72.69
2018-09-22T03:23:54.231Z,72.71
2018-09-22T03:26:23.783Z,73.45
2018-09-22T03:28:53.464Z,73.02
2018-09-22T03:31:23.333Z,72.98
2018-09-22T03:33:53.071Z,72.92
2018-09-22T03:36:22.609Z,72.65
2018-09-22T03:38:52.104Z,72.89
2018-09-22T03:41:21.659Z,72.66
2018-09-22T03:43:51.145Z,72.97
2018-09-22T03:46:20.636Z,72.35
2018-09-22T03:48:50.136Z,72.86
2018-09-22T03:51:19.665Z,72.31
2018-09-22T03:53:49.141Z,72.84
2018-09-22T03:56:18.685Z,72.44
2018-09-22T03:58:48.313Z,72.50
2018-09-22T04:01:17.886Z,72.61
2018-09-22T04:03:47.402Z,72.53
2018-09-22T04:06:16.954Z,72.51
2018-09-22T04:08:46.441Z,72.46
2018-09-22T04:11:15.990Z,71.64
2018-09-22T04:13:45.539Z,71.46
2018-09-22T04:16:15.046Z,72.28
2018-09-22T04:18:44.589Z,71.88
2018-09-22T04:21:14.114Z,72.06
2018-09-22T04:23:44.261Z,71.74
2018-09-22T04:26:13.796Z,71.38
2018-09-22T04:28:43.314Z,71.50
2018-09-22T04:31:12.835Z,72.09
2018-09-22T04:33:42.349Z,71.94
2018-09-22T04:36:12.030Z,71.44
2018-09-22T04:38:41.590Z,71.43
2018-09-22T04:41:11.090Z,71.65
2018-09-22T04:43:40.630Z,71.76
2018-09-22T04:46:10.126Z,71.71
2018-09-22T04:48:39.654Z,71.64
2018-09-22T04:51:09.200Z,71.61
2018-09-22T04:53:38.725Z,71.62
2018-09-22T04:56:08.207Z,71.47
2018-09-22T04:58:37.758Z,71.32
2018-09-22T05:01:07.297Z,71.08
2018-09-22T05:03:36.869Z,71.37
2018-09-22T05:06:06.657Z,71.01
2018-09-22T05:08:36.343Z,71.10
2018-09-22T05:11:06.109Z,71.88
2018-09-22T05:13:35.909Z,71.19
2018-09-22T05:16:05.909Z,71.48
2018-09-22T05:18:35.663Z,71.25
2018-09-22T05:21:06.014Z,71.05
2018-09-22T05:23:35.532Z,71.33
2018-09-22T05:26:05.035Z,71.43
2018-09-22T05:28:35.049Z,71.43
2018-09-22T05:31:04.554Z,71.23
2018-09-22T05:33:34.124Z,71.31
2018-09-22T05:36:03.832Z,71.45
2018-09-22T05:38:33.394Z,71.14
2018-09-22T05:41:03.005Z,71.12
2018-09-22T05:43:32.618Z,71.46
2018-09-22T05:46:02.168Z,71.70
2018-09-22T05:48:31.653Z,71.09
2018-09-22T05:51:01.194Z,71.45
2018-09-22T05:53:30.758Z,71.47
2018-09-22T05:56:00.310Z,71.65
2018-09-22T05:58:30.034Z,71.36
2018-09-22T06:00:59.549Z,71.30
2018-09-22T06:03:29.476Z,70.78
2018-09-22T06:05:59.214Z,71.02
2018-09-22T06:08:28.914Z,71.16
2018-09-22T06:10:58.487Z,71.14
2018-09-22T06:13:28.066Z,71.64
2018-09-22T06:15:57.639Z,71.04
2018-09-22T06:18:27.211Z,71.22
2018-09-22T06:20:56.800Z,70.95
2018-09-22T06:23:27.281Z,71.39
2018-09-22T06:25:57.137Z,71.13
2018-09-22T06:28:26.680Z,70.89
2018-09-22T06:30:56.312Z,70.53
2018-09-22T06:33:26.009Z,70.61
2018-09-22T06:35:55.633Z,70.50
2018-09-22T06:38:25.273Z,70.31
2018-09-22T06:40:54.831Z,69.74
2018-09-22T06:43:24.351Z,70.31
2018-09-22T06:45:53.846Z,69.88
2018-09-22T06:48:23.385Z,69.95
2018-09-22T06:50:52.956Z,69.95
2018-09-22T06:53:22.496Z,69.62
2018-09-22T06:55:52.033Z,70.44
2018-09-22T06:58:21.524Z,69.70
2018-09-22T07:00:51.059Z,69.33
2018-09-22T07:03:20.605Z,69.52
2018-09-22T07:05:50.109Z,69.46
2018-09-22T07:08:19.699Z,69.42
2018-09-22T07:10:49.259Z,69.41
2018-09-22T07:13:19.111Z,69.07
2018-09-22T07:15:48.728Z,68.50
2018-09-22T07:18:18.250Z,68.83
2018-09-22T07:20:53.300Z,68.20
2018-09-22T07:23:22.799Z,68.22
2018-09-22T07:25:52.335Z,68.13
2018-09-22T07:28:21.885Z,67.99
2018-09-22T07:30:51.457Z,67.54
2018-09-22T07:33:21.152Z,67.34
2018-09-22T07:35:50.671Z,67.13
2018-09-22T07:38:20.545Z,66.80
2018-09-22T07:40:50.115Z,66.78
2018-09-22T07:43:19.745Z,66.82
2018-09-22T07:45:49.727Z,66.30
2018-09-22T07:48:19.478Z,65.91
2018-09-22T07:50:49.005Z,66.00
2018-09-22T07:53:18.521Z,66.03
2018-09-22T07:55:48.074Z,65.67
2018-09-22T07:58:17.596Z,65.33
2018-09-22T08:00:47.113Z,65.68
2018-09-22T08:03:16.808Z,65.64
2018-09-22T08:05:46.338Z,65.66
2018-09-22T08:08:15.895Z,65.54
2018-09-22T08:10:45.527Z,65.32
2018-09-22T08:13:15.278Z,66.08
2018-09-22T08:15:44.844Z,65.34
2018-09-22T08:18:14.548Z,65.54
2018-09-22T08:20:44.051Z,65.21
2018-09-22T08:23:13.626Z,64.62
2018-09-22T08:25:43.372Z,64.95
2018-09-22T08:28:12.878Z,64.68
2018-09-22T08:30:42.461Z,64.69
2018-09-22T08:33:11.976Z,64.17
2018-09-22T08:35:41.556Z,64.08
2018-09-22T08:38:11.082Z,64.91
2018-09-22T08:40:40.673Z,64.34
2018-09-22T08:43:10.239Z,63.50
2018-09-22T08:45:39.774Z,64.04
2018-09-22T08:48:09.310Z,63.78
2018-09-22T08:50:39.023Z,63.87
2018-09-22T08:53:08.588Z,63.98
2018-09-22T08:55:38.119Z,63.30
2018-09-22T08:58:07.986Z,63.69
2018-09-22T09:00:37.502Z,62.42
2018-09-22T09:03:07.025Z,62.08
2018-09-22T09:05:36.592Z,61.48
2018-09-22T09:08:06.171Z,62.17
2018-09-22T09:10:35.901Z,61.67
2018-09-22T09:13:05.454Z,62.59
2018-09-22T09:15:34.973Z,61.25
2018-09-22T09:18:04.902Z,60.50
2018-09-22T09:20:34.986Z,60.67
2018-09-22T09:23:04.537Z,60.01
2018-09-22T09:25:34.023Z,59.96
2018-09-22T09:28:03.584Z,60.11
2018-09-22T09:30:33.252Z,58.07
2018-09-22T09:33:03.046Z,58.74
2018-09-22T09:35:32.585Z,57.52
2018-09-22T09:38:02.181Z,58.17
2018-09-22T09:40:31.738Z,57.73
2018-09-22T09:43:01.291Z,57.39
2018-09-22T09:45:30.814Z,57.28
2018-09-22T09:48:00.327Z,55.46
2018-09-22T09:50:29.874Z,55.01
2018-09-22T09:52:59.415Z,56.88
2018-09-22T09:55:28.984Z,55.32
2018-09-22T09:57:58.538Z,55.13
2018-09-22T10:00:33.464Z,54.58
2018-09-22T10:03:03.297Z,53.84
2018-09-22T10:05:33.043Z,53.48
2018-09-22T10:08:03.288Z,53.42
2018-09-22T10:10:32.812Z,53.81
2018-09-22T10:13:02.419Z,53.48
2018-09-22T10:15:32.536Z,53.44
2018-09-22T10:18:02.066Z,53.28
2018-09-22T10:20:31.818Z,51.14
2018-09-22T10:23:01.404Z,51.88
2018-09-22T10:25:30.972Z,51.25
2018-09-22T10:28:00.543Z,50.35
2018-09-22T10:30:30.072Z,51.21
2018-09-22T10:32:59.623Z,51.00
2018-09-22T10:35:29.202Z,49.88
2018-09-22T10:37:58.724Z,49.69
2018-09-22T10:40:28.626Z,49.20
2018-09-22T10:42:59.279Z,49.80
2018-09-22T10:45:28.805Z,49.04
2018-09-22T10:47:58.352Z,48.65
2018-09-22T10:50:27.882Z,48.96
2018-09-22T10:52:57.482Z,48.34
2018-09-22T10:55:27.185Z,48.01
2018-09-22T10:57:56.814Z,48.07
2018-09-22T11:00:26.377Z,48.08
2018-09-22T11:02:56.899Z,48.47
2018-09-22T11:05:26.474Z,49.25
2018-09-22T11:07:55.990Z,47.04
2018-09-22T11:10:25.777Z,45.99
2018-09-22T11:12:55.352Z,45.98
2018-09-22T11:15:24.933Z,46.70
2018-09-22T11:17:54.578Z,47.37
2018-09-22T11:20:24.509Z,46.92
2018-09-22T11:22:54.018Z,46.78
2018-09-22T11:25:23.541Z,47.52
2018-09-22T11:27:53.081Z,46.35
2018-09-22T11:30:22.921Z,47.08
2018-09-22T11:32:52.472Z,47.97
2018-09-22T11:35:21.972Z,46.06
2018-09-22T11:37:51.603Z,47.17
2018-09-22T11:40:21.108Z,46.53
2018-09-22T11:42:50.632Z,45.85
2018-09-22T11:45:20.195Z,45.53
2018-09-22T11:47:49.744Z,45.18
2018-09-22T11:50:23.071Z,46.14
2018-09-22T11:52:52.597Z,45.71
2018-09-22T11:55:22.104Z,44.86
2018-09-22T11:57:51.623Z,46.70
2018-09-22T12:00:21.103Z,45.81
2018-09-22T12:02:50.633Z,46.89
2018-09-22T12:05:20.201Z,46.80
2018-09-22T12:07:49.739Z,47.13
2018-09-22T12:10:19.322Z,46.99
2018-09-22T12:12:48.882Z,46.66
2018-09-22T12:15:18.428Z,48.07
2018-09-22T12:17:47.936Z,47.84
2018-09-22T12:20:17.557Z,47.69
2018-09-22T12:22:47.234Z,47.32
2018-09-22T12:25:16.749Z,47.04
2018-09-22T12:27:46.402Z,47.58
2018-09-22T12:30:16.066Z,47.53
2018-09-22T12:32:45.607Z,47.65
2018-09-22T12:35:15.235Z,47.87
2018-09-22T12:37:44.844Z,48.58
2018-09-22T12:40:14.400Z,47.37
2018-09-22T12:42:43.917Z,47.32
2018-09-22T12:45:13.495Z,47.50
2018-09-22T12:47:43.069Z,47.22
2018-09-22T12:50:12.605Z,46.94
2018-09-22T12:52:42.134Z,48.19
2018-09-22T12:55:11.688Z,48.74
2018-09-22T12:57:41.259Z,48.33
2018-09-22T13:00:10.918Z,48.60
2018-09-22T13:02:40.940Z,48.24
2018-09-22T13:05:11.385Z,47.75
2018-09-22T13:07:40.898Z,47.78
2018-09-22T13:10:10.461Z,48.78
2018-09-22T13:12:40.055Z,48.90
2018-09-22T13:15:09.580Z,49.16
2018-09-22T13:17:39.300Z,48.84
2018-09-22T13:20:08.924Z,49.63
2018-09-22T13:22:38.961Z,49.87
2018-09-22T13:25:08.843Z,49.37
2018-09-22T13:27:38.362Z,50.34
2018-09-22T13:30:07.993Z,49.38
2018-09-22T13:32:37.555Z,49.46
2018-09-22T13:35:07.119Z,49.63
2018-09-22T13:37:36.657Z,49.94
2018-09-22T13:40:06.322Z,50.18
2018-09-22T13:42:35.892Z,50.05
2018-09-22T13:45:05.479Z,49.96
2018-09-22T13:47:35.057Z,51.15
2018-09-22T13:50:05.024Z,50.71
2018-09-22T13:52:34.586Z,51.18
2018-09-22T13:55:04.437Z,51.20
2018-09-22T13:57:34.031Z,51.76
2018-09-22T14:00:03.758Z,51.81
2018-09-22T14:02:33.262Z,51.44
2018-09-22T14:05:02.794Z,51.63
2018-09-22T14:07:32.342Z,51.11
2018-09-22T14:10:01.906Z,51.94
2018-09-22T14:12:31.609Z,52.58
2018-09-22T14:15:01.245Z,52.41
2018-09-22T14:17:30.756Z,52.35
2018-09-22T14:20:00.308Z,51.52
2018-09-22T14:22:30.447Z,52.00
2018-09-22T14:25:00.013Z,52.58
2018-09-22T14:27:29.495Z,51.34
2018-09-22T14:29:59.155Z,52.58
2018-09-22T14:32:28.664Z,51.96
2018-09-22T14:34:58.270Z,53.12
2018-09-22T14:37:27.776Z,52.29
2018-09-22T14:39:57.302Z,52.97
2018-09-22T14:42:28.046Z,53.70
2018-09-22T14:44:58.236Z,53.19
2018-09-22T14:47:27.741Z,56.40
2018-09-22T14:49:57.334Z,56.27
2018-09-22T14:52:26.962Z,58.35
2018-09-22T14:54:56.517Z,58.33
2018-09-22T14:57:26.017Z,58.25
2018-09-22T14:59:55.535Z,59.52
2018-09-22T15:02:29.648Z,58.39
2018-09-22T15:04:59.272Z,59.47
2018-09-22T15:07:28.868Z,59.08
2018-09-22T15:09:58.415Z,59.01
2018-09-22T15:12:27.940Z,58.85
2018-09-22T15:14:57.593Z,59.80
2018-09-22T15:17:27.102Z,59.21
2018-09-22T15:19:56.823Z,59.61
2018-09-22T15:22:26.448Z,58.15
2018-09-22T15:24:56.018Z,58.44
2018-09-22T15:27:25.669Z,58.33
2018-09-22T15:29:55.214Z,59.66
2018-09-22T15:32:24.733Z,59.47
2018-09-22T15:34:54.446Z,59.86
2018-09-22T15:37:24.034Z,59.65
2018-09-22T15:39:53.550Z,59.31
2018-09-22T15:42:23.122Z,60.28
2018-09-22T15:44:52.639Z,60.75
2018-09-22T15:47:22.232Z,60.59
2018-09-22T15:49:51.848Z,60.74
2018-09-22T15:52:21.498Z,60.59
2018-09-22T15:54:51.177Z,60.82
2018-09-22T15:57:20.722Z,60.64
2018-09-22T15:59:50.341Z,62.23
2018-09-22T16:02:19.907Z,61.84
2018-09-22T16:04:50.134Z,62.12
2018-09-22T16:07:19.747Z,62.39
2018-09-22T16:09:49.504Z,62.43
2018-09-22T16:12:19.462Z,62.94
2018-09-22T16:14:50.161Z,62.57
2018-09-22T16:17:19.997Z,62.99
2018-09-22T16:19:49.564Z,63.34
2018-09-22T16:22:19.466Z,64.48
2018-09-22T16:24:49.063Z,65.01
2018-09-22T16:27:18.694Z,64.94
2018-09-22T16:29:48.365Z,64.98
2018-09-22T16:32:18.008Z,64.97
2018-09-22T16:34:47.538Z,66.22
2018-09-22T16:37:17.247Z,66.29
2018-09-22T16:39:46.785Z,66.18
2018-09-22T16:42:16.348Z,66.45
2018-09-22T16:44:45.865Z,66.42
2018-09-22T16:47:15.434Z,66.27
2018-09-22T16:49:45.039Z,67.13
2018-09-22T16:52:14.765Z,67.47
2018-09-22T16:54:45.471Z,67.52
2018-09-22T16:57:15.001Z,68.11
2018-09-22T16:59:44.563Z,68.79
2018-09-22T17:02:14.140Z,68.80
2018-09-22T17:04:43.682Z,69.85
2018-09-22T17:07:14.121Z,69.63
2018-09-22T17:09:44.230Z,69.36
2018-09-22T17:12:13.826Z,70.15
2018-09-22T17:14:43.430Z,69.94
2018-09-22T17:17:13.116Z,69.84
2018-09-22T17:19:42.662Z,70.00
2018-09-22T17:22:12.198Z,69.72
2018-09-22T17:24:41.751Z,70.02
2018-09-22T17:27:11.376Z,69.83
2018-09-22T17:29:41.133Z,69.95
2018-09-22T17:32:10.662Z,68.95
2018-09-22T17:34:40.240Z,69.96
2018-09-22T17:37:09.779Z,69.83
2018-09-22T17:39:39.345Z,71.47
2018-09-22T17:42:08.980Z,72.27
2018-09-22T17:44:38.650Z,73.64
2018-09-22T17:47:08.553Z,72.99
2018-09-22T17:49:38.062Z,72.61
2018-09-22T17:52:07.877Z,72.92
2018-09-22T17:54:38.577Z,73.44
2018-09-22T17:57:08.423Z,72.79
2018-09-22T17:59:37.979Z,72.56
2018-09-22T18:02:08.117Z,71.95
2018-09-22T18:04:37.640Z,72.01
2018-09-22T18:07:07.242Z,71.69
2018-09-22T18:09:36.745Z,71.73
2018-09-22T18:12:06.559Z,70.84
2018-09-22T18:14:36.128Z,70.66
2018-09-22T18:17:06.795Z,70.41
2018-09-22T18:19:36.290Z,70.28
2018-09-22T18:22:06.927Z,70.15
2018-09-22T18:24:36.469Z,70.28
2018-09-22T18:27:05.993Z,70.72
2018-09-22T18:29:35.527Z,70.18
2018-09-22T18:32:05.258Z,70.10
2018-09-22T18:34:34.771Z,69.40
2018-09-22T18:37:04.534Z,69.77
2018-09-22T18:39:34.035Z,69.83
2018-09-22T18:42:03.590Z,69.47
2018-09-22T18:44:33.148Z,69.90
2018-09-22T18:47:02.708Z,69.96
2018-09-22T18:49:32.271Z,70.36
2018-09-22T18:52:01.789Z,70.52
2018-09-22T18:54:31.510Z,71.02
2018-09-22T18:57:01.049Z,70.59
2018-09-22T18:59:30.756Z,70.27
2018-09-22T19:02:00.359Z,70.27
2018-09-22T19:04:29.932Z,70.26
2018-09-22T19:06:59.461Z,70.57
2018-09-22T19:09:28.952Z,70.73
2018-09-22T19:11:58.896Z,71.10
2018-09-22T19:14:32.916Z,71.24
2018-09-22T19:17:09.519Z,71.43
2018-09-22T19:19:45.663Z,70.68
2018-09-22T19:22:25.762Z,70.95
2018-09-22T19:24:59.340Z,70.94
2018-09-22T19:27:35.088Z,71.18
2018-09-22T19:30:11.254Z,71.41
2018-09-22T19:32:44.440Z,71.24
2018-09-22T19:35:21.525Z,71.03
2018-09-22T19:37:57.979Z,72.07
2018-09-22T19:40:43.677Z,72.02
2018-09-22T19:43:27.485Z,72.70
2018-09-22T19:46:00.753Z,72.21
2018-09-22T19:48:33.398Z,72.38
2018-09-22T19:51:07.900Z,72.10
2018-09-22T19:53:38.552Z,72.26
2018-09-22T19:56:08.184Z,71.98
2018-09-22T19:58:37.709Z,72.26
2018-09-22T20:01:08.163Z,72.50
2018-09-22T20:03:37.697Z,72.49
2018-09-22T20:06:07.321Z,72.32
2018-09-22T20:08:36.838Z,72.27
2018-09-22T20:11:06.742Z,72.34
2018-09-22T20:13:36.317Z,72.65
2018-09-22T20:16:05.833Z,72.67
2018-09-22T20:18:35.354Z,73.03
2018-09-22T20:21:05.240Z,72.97
2018-09-22T20:23:34.764Z,72.14
2018-09-22T20:26:04.266Z,72.96
2018-09-22T20:28:33.760Z,72.90
2018-09-22T20:31:03.276Z,73.03
2018-09-22T20:33:32.782Z,72.32
2018-09-22T20:36:04.140Z,72.54
2018-09-22T20:38:33.838Z,72.84
2018-09-22T20:41:03.388Z,72.91
2018-09-22T20:43:32.886Z,73.72
2018-09-22T20:46:02.510Z,73.90
2018-09-22T20:48:32.044Z,73.91
2018-09-22T20:51:01.695Z,73.95
2018-09-22T20:53:31.536Z,74.27
2018-09-22T20:56:01.071Z,74.46
2018-09-22T20:58:30.596Z,73.87
2018-09-22T21:01:00.239Z,73.78
2018-09-22T21:03:30.161Z,74.04
2018-09-22T21:05:59.771Z,73.97
2018-09-22T21:08:29.426Z,74.49
2018-09-22T21:10:58.980Z,73.92
2018-09-22T21:13:29.132Z,73.94
2018-09-22T21:15:58.661Z,73.92
2018-09-22T21:18:28.171Z,74.11
2018-09-22T21:20:57.733Z,74.36
2018-09-22T21:23:27.283Z,74.53
2018-09-22T21:25:56.984Z,74.50
2018-09-22T21:28:27.220Z,74.08
2018-09-22T21:30:56.965Z,74.63
2018-09-22T21:33:26.491Z,74.00
2018-09-22T21:35:56.030Z,74.39
2018-09-22T21:38:25.557Z,74.26
2018-09-22T21:40:55.109Z,74.49
2018-09-22T21:43:24.589Z,74.13
2018-09-22T21:45:54.093Z,74.46
2018-09-22T21:48:23.607Z,74.11
2018-09-22T21:50:53.132Z,74.55
2018-09-22T21:53:22.779Z,74.23
2018-09-22T21:55:52.309Z,74.54
2018-09-22T21:58:21.894Z,74.86
2018-09-22T22:00:52.259Z,74.65
2018-09-22T22:03:23.027Z,74.58
2018-09-22T22:05:52.908Z,74.42
2018-09-22T22:08:22.463Z,73.93
2018-09-22T22:10:52.059Z,74.12
2018-09-22T22:13:21.577Z,73.83
2018-09-22T22:15:51.108Z,73.87
2018-09-22T22:18:20.626Z,74.00
2018-09-22T22:20:50.159Z,73.71
2018-09-22T22:23:19.675Z,74.01
2018-09-22T22:25:49.239Z,74.24
2018-09-22T22:28:18.734Z,74.30
2018-09-22T22:30:48.418Z,73.90
2018-09-22T22:33:18.257Z,74.53
2018-09-22T22:35:47.854Z,74.37
2018-09-22T22:38:17.378Z,74.56
2018-09-22T22:40:46.925Z,74.19
2018-09-22T22:43:16.486Z,74.08
2018-09-22T22:45:46.655Z,74.82
2018-09-22T22:48:16.197Z,74.83
2018-09-22T22:50:45.883Z,74.53
2018-09-22T22:53:15.425Z,73.81
2018-09-22T22:55:45.033Z,74.27
2018-09-22T22:58:14.545Z,74.29
2018-09-22T23:00:44.372Z,74.41
2018-09-22T23:03:13.898Z,74.31
2018-09-22T23:05:43.789Z,74.04
2018-09-22T23:08:13.296Z,74.49
2018-09-22T23:10:42.846Z,74.35
2018-09-22T23:13:12.542Z,74.57
2018-09-22T23:15:42.061Z,74.26
2018-09-22T23:18:11.989Z,74.33
2018-09-22T23:20:41.542Z,74.58
2018-09-22T23:23:11.037Z,73.96
2018-09-22T23:25:40.546Z,74.35
2018-09-22T23:28:10.361Z,74.65
2018-09-22T23:30:39.891Z,75.13
2018-09-22T23:33:09.383Z,74.99
2018-09-22T23:35:38.957Z,74.42
2018-09-22T23:38:08.486Z,74.17
2018-09-22T23:40:38.037Z,75.12
2018-09-22T23:43:07.675Z,74.47
2018-09-22T23:45:37.234Z,74.45
2018-09-22T23:48:07.236Z,74.55
2018-09-22T23:50:36.818Z,74.06
2018-09-22T23:53:06.432Z,74.29
2018-09-22T23:55:36.305Z,74.55
2018-09-22T23:58:06.479Z,74.17
